createdAt,value
2018-08-23T00:02:32.090Z,60.80
2018-08-23T00:05:06.305Z,60.80
2018-08-23T00:07:40.634Z,60.80
2018-08-23T00:10:14.954Z,60.80
2018-08-23T00:12:55.185Z,60.70
2018-08-23T00:15:33.230Z,60.70
2018-08-23T00:18:07.612Z,60.70
2018-08-23T00:20:41.917Z,60.80
2018-08-23T00:23:16.312Z,60.80
2018-08-23T00:25:50.599Z,60.70
2018-08-23T00:28:24.852Z,60.80
2018-08-23T00:30:59.165Z,60.70
2018-08-23T00:33:33.445Z,60.70
2018-08-23T00:36:07.928Z,60.70
2018-08-23T00:38:42.168Z,60.80
2018-08-23T00:41:16.555Z,60.80
2018-08-23T00:43:50.896Z,60.70
2018-08-23T00:46:25.276Z,60.70
2018-08-23T00:48:59.696Z,60.70
2018-08-23T00:51:38.702Z,60.80
2018-08-23T00:54:13.629Z,60.80
2018-08-23T00:56:48.005Z,61.00
2018-08-23T00:59:22.742Z,60.80
2018-08-23T01:02:09.596Z,60.80
2018-08-23T01:04:45.556Z,61.00
2018-08-23T01:07:22.234Z,60.90
2018-08-23T01:09:57.312Z,61.00
2018-08-23T01:12:32.178Z,61.00
2018-08-23T01:15:06.438Z,61.00
2018-08-23T01:17:40.954Z,61.10
2018-08-23T01:20:15.150Z,61.10
2018-08-23T01:22:59.337Z,61.10
2018-08-23T01:25:38.316Z,61.20
2018-08-23T01:28:12.655Z,61.20
2018-08-23T01:30:47.789Z,61.10
2018-08-23T01:33:22.717Z,61.20
2018-08-23T01:35:57.191Z,61.20
2018-08-23T01:38:31.511Z,61.20
2018-08-23T01:41:11.341Z,61.30
2018-08-23T01:43:45.692Z,61.40
2018-08-23T01:46:19.907Z,61.50
2018-08-23T01:48:54.385Z,61.40
2018-08-23T01:51:28.658Z,61.60
2018-08-23T01:54:03.047Z,61.60
2018-08-23T01:56:37.308Z,61.50
2018-08-23T01:59:11.868Z,61.60
2018-08-23T02:01:46.330Z,61.60
2018-08-23T02:04:20.601Z,61.70
2018-08-23T02:06:54.798Z,61.70
2018-08-23T02:09:29.167Z,61.80
2018-08-23T02:12:03.652Z,61.80
2018-08-23T02:14:42.344Z,61.90
2018-08-23T02:17:16.808Z,61.90
2018-08-23T02:19:51.104Z,61.90
2018-08-23T02:22:25.399Z,62.00
2018-08-23T02:24:59.769Z,61.60
2018-08-23T02:27:34.536Z,62.10
2018-08-23T02:30:08.771Z,62.20
2018-08-23T02:32:43.199Z,62.20
2018-08-23T02:35:17.557Z,63.10
2018-08-23T02:37:51.931Z,62.30
2018-08-23T02:40:26.161Z,62.40
2018-08-23T02:43:00.496Z,62.30
2018-08-23T02:45:40.132Z,62.30
2018-08-23T02:48:14.520Z,62.40
2018-08-23T02:50:49.466Z,62.40
2018-08-23T02:53:32.868Z,62.40
2018-08-23T02:56:09.896Z,62.40
2018-08-23T02:59:11.870Z,62.50
2018-08-23T03:01:47.504Z,62.50
2018-08-23T03:04:24.915Z,62.50
2018-08-23T03:07:04.427Z,62.60
2018-08-23T03:09:40.596Z,62.70
2018-08-23T03:12:16.293Z,62.70
2018-08-23T03:14:50.781Z,62.80
2018-08-23T03:17:33.173Z,62.80
2018-08-23T03:20:16.812Z,62.60
2018-08-23T03:22:53.281Z,62.50
2018-08-23T03:25:27.644Z,62.50
2018-08-23T03:28:02.001Z,62.60
2018-08-23T03:30:36.316Z,62.70
2018-08-23T03:33:10.752Z,62.70
2018-08-23T03:35:45.121Z,62.80
2018-08-23T03:38:19.471Z,62.80
2018-08-23T03:40:53.784Z,62.90
2018-08-23T03:43:28.159Z,62.90
2018-08-23T03:46:02.519Z,62.90
2018-08-23T03:48:36.873Z,63.00
2018-08-23T03:51:11.131Z,63.00
2018-08-23T03:53:50.963Z,63.00
2018-08-23T03:56:25.331Z,63.10
2018-08-23T03:58:59.645Z,63.20
2018-08-23T04:01:34.073Z,63.20
2018-08-23T04:04:08.438Z,63.20
2018-08-23T04:06:42.678Z,63.20
2018-08-23T04:09:16.983Z,63.20
2018-08-23T04:11:51.330Z,66.90
2018-08-23T04:14:25.576Z,72.50
2018-08-23T04:16:59.826Z,76.50
2018-08-23T04:19:38.618Z,80.00
2018-08-23T04:22:12.861Z,82.10
2018-08-23T04:24:54.328Z,85.50
2018-08-23T04:27:28.682Z,87.40
2018-08-23T04:30:03.243Z,89.60
2018-08-23T04:32:43.631Z,89.90
2018-08-23T04:35:33.452Z,90.10
2018-08-23T04:38:07.779Z,90.80
2018-08-23T04:40:53.324Z,91.20
2018-08-23T04:43:27.546Z,91.70
2018-08-23T04:46:03.329Z,91.70
2018-08-23T04:48:37.556Z,91.80
2018-08-23T04:51:11.894Z,92.00
2018-08-23T04:53:46.330Z,92.00
2018-08-23T04:56:20.694Z,92.20
2018-08-23T04:58:54.914Z,92.40
2018-08-23T05:01:29.333Z,92.20
2018-08-23T05:04:03.763Z,92.60
2018-08-23T05:06:38.013Z,92.70
2018-08-23T05:09:12.498Z,93.10
2018-08-23T05:11:46.688Z,92.90
2018-08-23T05:14:21.067Z,92.80
2018-08-23T05:16:55.399Z,92.80
2018-08-23T05:19:29.627Z,92.70
2018-08-23T05:22:04.041Z,93.30
2018-08-23T05:24:38.451Z,93.20
2018-08-23T05:27:12.734Z,93.00
2018-08-23T05:29:47.193Z,93.20
2018-08-23T05:32:21.574Z,93.20
2018-08-23T05:34:55.835Z,92.90
2018-08-23T05:37:30.250Z,92.90
2018-08-23T05:40:04.567Z,92.90
2018-08-23T05:42:51.083Z,92.60
2018-08-23T05:45:33.198Z,92.50
2018-08-23T05:48:31.349Z,92.60
2018-08-23T05:51:14.753Z,92.50
2018-08-23T05:53:51.372Z,92.20
2018-08-23T05:56:25.696Z,93.10
2018-08-23T05:59:05.477Z,92.50
2018-08-23T06:01:39.724Z,92.20
2018-08-23T06:04:14.277Z,91.60
2018-08-23T06:06:48.695Z,91.70
2018-08-23T06:09:23.016Z,89.10
2018-08-23T06:11:57.283Z,87.20
2018-08-23T06:14:31.611Z,85.50
2018-08-23T06:17:06.041Z,85.90
2018-08-23T06:19:40.435Z,85.30
2018-08-23T06:22:14.681Z,85.50
2018-08-23T06:24:49.093Z,83.00
2018-08-23T06:27:23.518Z,80.30
2018-08-23T06:29:57.727Z,78.60
2018-08-23T06:32:32.120Z,77.60
2018-08-23T06:35:06.490Z,77.40
2018-08-23T06:37:44.957Z,76.60
2018-08-23T06:40:19.383Z,76.90
2018-08-23T06:43:02.806Z,77.00
2018-08-23T06:45:37.184Z,77.70
2018-08-23T06:48:11.483Z,77.10
2018-08-23T06:50:51.228Z,76.30
2018-08-23T06:53:30.309Z,75.40
2018-08-23T06:56:04.800Z,75.70
2018-08-23T06:58:39.102Z,75.60
2018-08-23T07:01:30.238Z,76.00
2018-08-23T07:04:08.335Z,75.70
2018-08-23T07:06:42.823Z,75.90
2018-08-23T07:09:18.408Z,75.10
2018-08-23T07:11:57.087Z,75.30
2018-08-23T07:14:31.496Z,77.60
2018-08-23T07:17:19.927Z,80.80
2018-08-23T07:19:54.388Z,81.40
2018-08-23T07:22:28.674Z,82.80
2018-08-23T07:25:03.008Z,83.40
2018-08-23T07:27:37.380Z,83.30
2018-08-23T07:30:17.642Z,83.40
2018-08-23T07:32:51.856Z,84.30
2018-08-23T07:35:26.201Z,84.30
2018-08-23T07:38:00.508Z,84.90
2018-08-23T07:40:34.788Z,84.30
2018-08-23T07:43:09.165Z,83.60
2018-08-23T07:45:43.387Z,83.70
2018-08-23T07:48:17.848Z,83.60
2018-08-23T07:50:52.107Z,81.80
2018-08-23T07:53:26.500Z,80.30
2018-08-23T07:56:10.915Z,79.00
2018-08-23T07:58:45.241Z,76.30
2018-08-23T08:01:22.658Z,74.40
2018-08-23T08:03:57.900Z,71.60
2018-08-23T08:06:32.305Z,69.70
2018-08-23T08:09:10.128Z,70.60
2018-08-23T08:11:50.953Z,69.20
2018-08-23T08:14:32.147Z,67.50
2018-08-23T08:17:15.463Z,67.30
2018-08-23T08:19:55.140Z,66.90
2018-08-23T08:22:29.638Z,66.70
2018-08-23T08:25:14.751Z,65.80
2018-08-23T08:27:50.188Z,65.20
2018-08-23T08:30:34.722Z,64.00
2018-08-23T08:33:10.458Z,62.70
2018-08-23T08:35:45.624Z,62.60
2018-08-23T08:38:19.889Z,63.40
2018-08-23T08:41:01.078Z,62.00
2018-08-23T08:43:35.580Z,61.30
2018-08-23T08:46:09.986Z,60.20
2018-08-23T08:48:44.374Z,59.10
2018-08-23T08:51:22.559Z,59.30
2018-08-23T08:53:57.936Z,58.80
2018-08-23T08:56:37.789Z,58.70
2018-08-23T08:59:12.077Z,57.40
2018-08-23T09:01:46.414Z,57.00
2018-08-23T09:04:26.336Z,56.40
2018-08-23T09:07:00.692Z,55.90
2018-08-23T09:09:39.861Z,55.80
2018-08-23T09:12:14.318Z,55.60
2018-08-23T09:14:48.609Z,56.90
2018-08-23T09:17:39.788Z,56.50
2018-08-23T09:20:15.220Z,55.70
2018-08-23T09:22:51.298Z,55.60
2018-08-23T09:25:32.406Z,55.00
2018-08-23T09:28:06.733Z,54.40
2018-08-23T09:30:40.985Z,53.60
2018-08-23T09:33:20.729Z,53.60
2018-08-23T09:35:55.022Z,53.70
2018-08-23T09:38:29.372Z,53.40
2018-08-23T09:41:03.764Z,53.40
2018-08-23T09:43:38.543Z,53.80
2018-08-23T09:46:12.931Z,54.50
2018-08-23T09:48:47.422Z,54.60
2018-08-23T09:51:26.952Z,54.50
2018-08-23T09:54:01.263Z,54.00
2018-08-23T09:56:35.635Z,54.20
2018-08-23T09:59:10.023Z,54.20
2018-08-23T10:01:49.941Z,54.00
2018-08-23T10:04:29.501Z,54.10
2018-08-23T10:07:09.325Z,53.30
2018-08-23T10:09:48.803Z,53.80
2018-08-23T10:12:28.315Z,53.90
2018-08-23T10:15:08.125Z,53.80
2018-08-23T10:17:47.924Z,54.00
2018-08-23T10:20:27.564Z,53.70
2018-08-23T10:23:07.249Z,53.90
2018-08-23T10:25:49.101Z,54.00
2018-08-23T10:28:25.632Z,53.70
2018-08-23T10:30:59.847Z,53.50
2018-08-23T10:33:34.125Z,54.00
2018-08-23T10:36:08.407Z,53.90
2018-08-23T10:38:42.724Z,53.60
2018-08-23T10:41:17.114Z,54.00
2018-08-23T10:43:51.532Z,54.90
2018-08-23T10:46:25.877Z,54.20
2018-08-23T10:49:00.309Z,54.20
2018-08-23T10:51:34.585Z,53.50
2018-08-23T10:54:08.917Z,54.30
2018-08-23T10:56:43.340Z,54.20
2018-08-23T10:59:17.752Z,53.90
2018-08-23T11:01:52.116Z,54.00
2018-08-23T11:04:26.337Z,53.60
2018-08-23T11:07:00.724Z,54.50
2018-08-23T11:09:40.555Z,54.70
2018-08-23T11:12:20.247Z,54.50
2018-08-23T11:14:54.620Z,54.50
2018-08-23T11:17:34.316Z,54.30
2018-08-23T11:20:14.116Z,54.50
2018-08-23T11:22:48.408Z,54.60
2018-08-23T11:25:23.764Z,54.90
2018-08-23T11:27:57.997Z,54.70
2018-08-23T11:30:32.404Z,54.50
2018-08-23T11:33:09.697Z,54.30
2018-08-23T11:35:44.661Z,53.90
2018-08-23T11:38:19.031Z,54.50
2018-08-23T11:40:53.257Z,55.20
2018-08-23T11:43:27.550Z,54.90
2018-08-23T11:46:06.991Z,54.50
2018-08-23T11:48:42.039Z,55.00
2018-08-23T11:51:17.207Z,54.90
2018-08-23T11:53:51.707Z,54.90
2018-08-23T11:56:26.016Z,54.90
2018-08-23T11:59:00.457Z,54.90
2018-08-23T12:01:34.784Z,53.80
2018-08-23T12:04:09.011Z,53.70
2018-08-23T12:06:43.282Z,54.60
2018-08-23T12:09:17.676Z,54.80
2018-08-23T12:11:52.156Z,54.70
2018-08-23T12:14:26.500Z,54.70
2018-08-23T12:17:00.786Z,54.50
2018-08-23T12:19:35.208Z,54.30
2018-08-23T12:22:09.467Z,54.60
2018-08-23T12:24:43.749Z,54.70
2018-08-23T12:27:18.137Z,54.00
2018-08-23T12:29:52.420Z,54.60
2018-08-23T12:32:26.709Z,54.60
2018-08-23T12:35:01.026Z,54.60
2018-08-23T12:37:40.458Z,54.60
2018-08-23T12:40:20.103Z,54.20
2018-08-23T12:42:54.470Z,54.40
2018-08-23T12:45:28.730Z,54.60
2018-08-23T12:48:03.256Z,54.60
2018-08-23T12:50:37.589Z,54.60
2018-08-23T12:53:11.962Z,54.40
2018-08-23T12:55:47.299Z,54.70
2018-08-23T12:58:21.674Z,54.40
2018-08-23T13:00:56.453Z,53.80
2018-08-23T13:03:31.131Z,54.60
2018-08-23T13:06:05.609Z,55.10
2018-08-23T13:08:39.972Z,54.90
2018-08-23T13:11:14.362Z,55.00
2018-08-23T13:13:48.464Z,54.80
2018-08-23T13:16:22.853Z,54.60
2018-08-23T13:18:57.391Z,54.90
2018-08-23T13:21:31.652Z,55.00
2018-08-23T13:24:06.036Z,54.80
2018-08-23T13:26:45.421Z,54.70
2018-08-23T13:29:19.826Z,54.80
2018-08-23T13:31:54.553Z,54.80
2018-08-23T13:34:28.866Z,54.70
2018-08-23T13:37:04.887Z,54.40
2018-08-23T13:39:39.245Z,55.10
2018-08-23T13:42:13.487Z,54.50
2018-08-23T13:44:47.841Z,55.10
2018-08-23T13:47:22.214Z,55.60
2018-08-23T13:49:56.664Z,56.10
2018-08-23T13:52:31.035Z,56.40
2018-08-23T13:55:05.349Z,56.60
2018-08-23T13:57:39.711Z,56.10
2018-08-23T14:00:19.346Z,56.90
2018-08-23T14:02:53.709Z,56.30
2018-08-23T14:05:28.318Z,55.80
2018-08-23T14:08:02.773Z,54.80
2018-08-23T14:10:37.048Z,55.60
2018-08-23T14:13:11.324Z,54.90
2018-08-23T14:15:51.120Z,56.30
2018-08-23T14:18:25.434Z,55.40
2018-08-23T14:20:59.835Z,56.30
2018-08-23T14:23:34.183Z,56.70
2018-08-23T14:26:10.747Z,54.70
2018-08-23T14:28:45.067Z,56.30
2018-08-23T14:31:19.460Z,55.30
2018-08-23T14:33:53.904Z,55.00
2018-08-23T14:36:28.290Z,55.40
2018-08-23T14:39:02.701Z,53.30
2018-08-23T14:41:37.224Z,55.10
2018-08-23T14:44:11.579Z,55.50
2018-08-23T14:46:51.413Z,54.50
2018-08-23T14:49:31.193Z,54.90
2018-08-23T14:52:06.495Z,54.90
2018-08-23T14:54:41.953Z,53.00
2018-08-23T14:57:21.679Z,55.10
2018-08-23T14:59:56.015Z,54.90
2018-08-23T15:02:30.533Z,55.60
2018-08-23T15:05:04.804Z,55.60
2018-08-23T15:07:39.210Z,55.90
2018-08-23T15:10:13.524Z,55.60
2018-08-23T15:12:47.878Z,55.70
2018-08-23T15:15:27.629Z,55.70
2018-08-23T15:18:02.144Z,56.20
2018-08-23T15:20:36.517Z,55.20
2018-08-23T15:23:10.826Z,55.70
2018-08-23T15:25:45.094Z,56.30
2018-08-23T15:28:19.520Z,56.00
2018-08-23T15:30:53.941Z,56.00
2018-08-23T15:33:28.255Z,55.90
2018-08-23T15:36:02.673Z,55.70
2018-08-23T15:38:37.070Z,55.50
2018-08-23T15:41:11.629Z,56.30
2018-08-23T15:43:45.929Z,56.20
2018-08-23T15:46:20.269Z,55.50
2018-08-23T15:48:54.636Z,55.80
2018-08-23T15:51:29.085Z,56.20
2018-08-23T15:54:03.472Z,55.90
2018-08-23T15:56:38.665Z,56.40
2018-08-23T15:59:13.157Z,55.90
2018-08-23T16:01:47.494Z,56.00
2018-08-23T16:04:21.808Z,56.00
2018-08-23T16:06:56.130Z,55.80
2018-08-23T16:09:30.402Z,55.60
2018-08-23T16:12:04.700Z,55.70
2018-08-23T16:14:38.946Z,55.30
2018-08-23T16:17:18.906Z,56.10
2018-08-23T16:19:58.541Z,55.60
2018-08-23T16:22:32.812Z,56.20
2018-08-23T16:25:07.319Z,56.10
2018-08-23T16:27:41.739Z,56.00
2018-08-23T16:30:16.168Z,56.00
2018-08-23T16:32:50.613Z,55.90
2018-08-23T16:35:24.989Z,55.80
2018-08-23T16:37:59.284Z,56.00
2018-08-23T16:40:33.518Z,55.90
2018-08-23T16:43:08.096Z,55.80
2018-08-23T16:45:42.528Z,56.40
2018-08-23T16:48:16.859Z,56.60
2018-08-23T16:50:51.199Z,56.50
2018-08-23T16:53:25.609Z,56.70
2018-08-23T16:55:59.905Z,56.40
2018-08-23T16:58:34.409Z,56.70
2018-08-23T17:01:08.587Z,56.70
2018-08-23T17:03:44.697Z,56.60
2018-08-23T17:06:19.021Z,56.50
2018-08-23T17:08:53.488Z,56.60
2018-08-23T17:11:27.801Z,56.70
2018-08-23T17:14:02.116Z,56.80
2018-08-23T17:16:41.868Z,57.10
2018-08-23T17:19:16.311Z,57.00
2018-08-23T17:21:50.653Z,56.90
2018-08-23T17:24:25.036Z,56.80
2018-08-23T17:26:59.312Z,56.90
2018-08-23T17:29:33.670Z,57.10
2018-08-23T17:32:08.417Z,57.00
2018-08-23T17:34:42.639Z,57.10
2018-08-23T17:37:17.077Z,57.30
2018-08-23T17:39:51.329Z,57.50
2018-08-23T17:42:31.176Z,57.70
2018-08-23T17:45:05.460Z,57.80
2018-08-23T17:47:39.871Z,57.80
2018-08-23T17:50:14.120Z,57.70
2018-08-23T17:52:48.445Z,57.80
2018-08-23T17:55:22.777Z,58.00
2018-08-23T17:57:57.115Z,57.90
2018-08-23T18:00:31.380Z,58.00
2018-08-23T18:03:05.984Z,57.90
2018-08-23T18:05:40.389Z,59.00
2018-08-23T18:08:14.805Z,59.10
2018-08-23T18:10:49.181Z,59.20
2018-08-23T18:13:23.654Z,59.30
2018-08-23T18:16:04.125Z,59.70
2018-08-23T18:18:38.390Z,59.90
2018-08-23T18:21:12.729Z,60.30
2018-08-23T18:23:47.014Z,61.00
2018-08-23T18:26:21.356Z,60.40
2018-08-23T18:28:55.952Z,60.30
2018-08-23T18:31:30.364Z,60.50
2018-08-23T18:34:05.255Z,61.50
2018-08-23T18:36:39.635Z,61.00
2018-08-23T18:39:13.870Z,60.30
2018-08-23T18:41:48.177Z,59.80
2018-08-23T18:44:22.503Z,59.60
2018-08-23T18:46:56.896Z,59.40
2018-08-23T18:49:31.327Z,58.90
2018-08-23T18:52:05.883Z,58.60
2018-08-23T18:54:40.120Z,58.70
2018-08-23T18:57:14.459Z,58.50
2018-08-23T18:59:48.812Z,58.50
2018-08-23T19:02:23.989Z,58.30
2018-08-23T19:04:58.532Z,58.20
2018-08-23T19:07:38.360Z,58.00
2018-08-23T19:10:12.981Z,58.10
2018-08-23T19:12:47.351Z,57.60
2018-08-23T19:15:27.035Z,57.60
2018-08-23T19:18:01.361Z,57.60
2018-08-23T19:20:35.759Z,57.70
2018-08-23T19:23:10.136Z,57.50
2018-08-23T19:25:44.444Z,57.90
2018-08-23T19:28:18.880Z,58.00
2018-08-23T19:30:53.286Z,58.10
2018-08-23T19:33:27.693Z,58.10
2018-08-23T19:36:02.062Z,57.80
2018-08-23T19:38:36.398Z,58.10
2018-08-23T19:41:10.792Z,58.10
2018-08-23T19:43:45.081Z,58.10
2018-08-23T19:46:24.805Z,58.00
2018-08-23T19:49:04.669Z,58.30
2018-08-23T19:51:39.076Z,58.30
2018-08-23T19:54:13.440Z,58.40
2018-08-23T19:56:47.660Z,58.50
2018-08-23T19:59:22.255Z,58.50
2018-08-23T20:01:56.603Z,58.40
2018-08-23T20:04:30.947Z,56.40
2018-08-23T20:07:05.516Z,58.70
2018-08-23T20:09:40.124Z,58.80
2018-08-23T20:12:14.436Z,58.70
2018-08-23T20:14:48.736Z,58.70
2018-08-23T20:17:23.116Z,58.80
2018-08-23T20:19:57.497Z,58.90
2018-08-23T20:22:31.885Z,58.70
2018-08-23T20:25:06.431Z,58.90
2018-08-23T20:27:40.744Z,59.30
2018-08-23T20:30:15.034Z,59.00
2018-08-23T20:32:49.491Z,59.10
2018-08-23T20:35:23.790Z,59.10
2018-08-23T20:37:58.172Z,59.00
2018-08-23T20:40:32.504Z,59.20
2018-08-23T20:43:06.952Z,59.20
2018-08-23T20:45:41.605Z,59.00
2018-08-23T20:48:15.915Z,59.30
2018-08-23T20:50:50.212Z,59.10
2018-08-23T20:53:24.564Z,58.90
2018-08-23T20:55:58.899Z,59.40
2018-08-23T20:58:33.222Z,59.30
2018-08-23T21:01:07.505Z,59.20
2018-08-23T21:03:41.950Z,58.90
2018-08-23T21:06:16.144Z,59.70
2018-08-23T21:08:50.561Z,58.30
2018-08-23T21:11:24.889Z,57.90
2018-08-23T21:13:59.221Z,59.70
2018-08-23T21:16:33.669Z,60.00
2018-08-23T21:19:08.160Z,60.00
2018-08-23T21:21:42.456Z,59.90
2018-08-23T21:24:16.825Z,59.80
2018-08-23T21:26:51.138Z,59.70
2018-08-23T21:29:25.393Z,59.90
2018-08-23T21:31:59.711Z,59.80
2018-08-23T21:34:34.001Z,59.80
2018-08-23T21:37:08.326Z,59.00
2018-08-23T21:39:42.517Z,58.30
2018-08-23T21:42:16.792Z,60.30
2018-08-23T21:44:51.101Z,60.40
2018-08-23T21:47:25.421Z,60.20
2018-08-23T21:49:59.809Z,58.10
2018-08-23T21:52:34.277Z,60.70
2018-08-23T21:55:08.508Z,60.70
2018-08-23T21:57:42.804Z,60.60
2018-08-23T22:00:17.173Z,60.70
2018-08-23T22:02:51.401Z,60.60
2018-08-23T22:05:25.651Z,60.50
2018-08-23T22:08:00.034Z,60.40
2018-08-23T22:10:34.422Z,60.40
2018-08-23T22:13:08.846Z,60.30
2018-08-23T22:15:46.213Z,60.50
2018-08-23T22:18:20.553Z,60.50
2018-08-23T22:20:54.807Z,60.00
2018-08-23T22:23:29.118Z,60.40
2018-08-23T22:26:03.348Z,60.10
2018-08-23T22:28:37.585Z,60.00
2018-08-23T22:31:11.796Z,61.20
2018-08-23T22:33:46.120Z,60.60
2018-08-23T22:36:20.501Z,60.50
2018-08-23T22:38:54.775Z,60.40
2018-08-23T22:41:29.172Z,60.40
2018-08-23T22:44:03.572Z,60.30
2018-08-23T22:46:37.932Z,60.40
2018-08-23T22:49:12.339Z,60.30
2018-08-23T22:51:46.766Z,60.50
2018-08-23T22:54:21.072Z,58.40
2018-08-23T22:56:55.317Z,60.10
2018-08-23T22:59:29.612Z,60.70
2018-08-23T23:02:03.926Z,60.80
2018-08-23T23:04:38.160Z,60.50
2018-08-23T23:07:12.572Z,60.50
2018-08-23T23:09:46.900Z,59.70
2018-08-23T23:12:21.316Z,60.50
2018-08-23T23:14:55.772Z,60.70
2018-08-23T23:17:30.060Z,60.10
2018-08-23T23:20:04.356Z,60.70
2018-08-23T23:22:38.577Z,60.70
2018-08-23T23:25:12.921Z,59.00
2018-08-23T23:27:47.161Z,60.90
2018-08-23T23:30:21.350Z,60.80
2018-08-23T23:32:56.422Z,60.60
2018-08-23T23:35:30.809Z,60.60
2018-08-23T23:38:05.092Z,60.60
2018-08-23T23:40:46.293Z,59.40
2018-08-23T23:43:20.521Z,60.50
2018-08-23T23:45:54.860Z,60.00
2018-08-23T23:48:29.141Z,60.30
2018-08-23T23:51:03.566Z,60.20
2018-08-23T23:53:37.882Z,60.20
2018-08-23T23:56:12.283Z,60.00
2018-08-23T23:58:46.556Z,60.00
